createdAt,value
2022-09-28T00:08:40.887Z,8.81
2022-09-28T00:23:36.855Z,8.72
2022-09-28T00:38:32.394Z,8.57
2022-09-28T00:53:28.447Z,8.64
2022-09-28T01:08:24.692Z,8.65
2022-09-28T01:23:20.818Z,8.57
2022-09-28T01:38:16.966Z,8.44
2022-09-28T01:53:13.661Z,8.39
2022-09-28T02:08:10.032Z,8.24
2022-09-28T02:23:06.412Z,8.13
2022-09-28T02:38:02.480Z,8.06
2022-09-28T02:52:59.077Z,7.97
2022-09-28T03:07:54.534Z,8.19
2022-09-28T03:23:06.333Z,7.89
2022-09-28T03:37:46.977Z,7.89
2022-09-28T03:52:43.570Z,7.62
2022-09-28T04:07:40.013Z,7.52
2022-09-28T04:22:35.998Z,7.67
2022-09-28T04:37:32.624Z,7.65
2022-09-28T04:52:28.932Z,7.61
2022-09-28T05:07:24.891Z,7.79
2022-09-28T05:22:20.858Z,8.05
2022-09-28T05:37:17.077Z,7.93
2022-09-28T05:52:13.976Z,7.81
2022-09-28T06:07:09.679Z,7.98
2022-09-28T06:22:06.103Z,7.96
2022-09-28T06:37:02.635Z,8.41
2022-09-28T06:51:58.745Z,8.58
2022-09-28T07:06:54.785Z,8.82
2022-09-28T07:22:01.766Z,9.13
2022-09-28T07:36:47.955Z,9.24
2022-09-28T07:51:44.346Z,9.79
2022-09-28T08:06:40.492Z,9.94
2022-09-28T08:21:37.302Z,10.25
2022-09-28T08:36:33.966Z,10.76
2022-09-28T08:51:30.520Z,10.89
2022-09-28T09:06:27.018Z,10.97
2022-09-28T09:21:23.186Z,11.95
2022-09-28T09:36:20.050Z,11.37
2022-09-28T09:51:16.286Z,12.94
2022-09-28T10:06:12.961Z,12.27
2022-09-28T10:36:05.126Z,12.21
2022-09-28T10:51:01.239Z,11.87
2022-09-28T11:05:56.801Z,13.94
2022-09-28T11:20:53.732Z,12.66
2022-09-28T11:35:50.056Z,12.46
2022-09-28T11:50:45.918Z,12.15
2022-09-28T12:05:42.432Z,12.85
2022-09-28T12:20:39.769Z,12.81
2022-09-28T12:35:36.157Z,12.75
2022-09-28T12:50:41.699Z,13.05
2022-09-28T13:05:29.059Z,13.17
2022-09-28T13:20:24.831Z,12.54
2022-09-28T13:35:20.675Z,12.48
2022-09-28T13:50:16.691Z,12.34
2022-09-28T14:05:12.380Z,12.57
2022-09-28T14:20:08.722Z,12.74
2022-09-28T14:35:05.113Z,12.72
2022-09-28T14:50:01.092Z,12.84
2022-09-28T15:04:57.844Z,13.04
2022-09-28T15:19:53.801Z,12.99
2022-09-28T15:34:49.943Z,12.74
2022-09-28T15:49:46.066Z,12.87
2022-09-28T16:04:42.987Z,12.69
2022-09-28T16:19:38.737Z,12.22
2022-09-28T16:34:34.736Z,11.72
2022-09-28T16:49:30.735Z,11.54
2022-09-28T17:04:26.955Z,11.18
2022-09-28T17:19:22.863Z,11.52
2022-09-28T17:34:18.904Z,10.85
2022-09-28T17:49:14.429Z,10.35
2022-09-28T18:04:15.865Z,10.13
2022-09-28T18:19:06.589Z,9.6
2022-09-28T18:34:02.836Z,9.42
2022-09-28T18:48:58.778Z,9.32
2022-09-28T19:03:55.081Z,9.25
2022-09-28T19:18:51.293Z,9.2
2022-09-28T19:33:47.506Z,9.04
2022-09-28T19:48:43.596Z,9.11
2022-09-28T20:03:40.445Z,8.99
2022-09-28T20:18:36.373Z,9.01
2022-09-28T20:33:32.691Z,8.93
2022-09-28T20:48:28.921Z,8.98
2022-09-28T21:03:25.187Z,8.9
2022-09-28T21:25:28.359Z,8.81
2022-09-28T21:40:24.291Z,8.52
2022-09-28T21:55:20.106Z,8.38
2022-09-28T22:10:15.907Z,7.93
2022-09-28T22:25:12.104Z,7.9
2022-09-28T22:40:08.233Z,7.54
2022-09-28T22:55:04.640Z,7.39
2022-09-28T23:10:00.782Z,6.99
2022-09-28T23:24:56.623Z,6.89
2022-09-28T23:39:52.909Z,6.72
2022-09-28T23:54:49.093Z,6.59
